createdAt,value
2019-05-25T00:00:32.507Z,5.30
2019-05-25T00:05:41.391Z,5.63
2019-05-25T00:10:49.918Z,5.47
2019-05-25T00:15:58.832Z,5.23
2019-05-25T00:21:07.536Z,4.80
2019-05-25T00:26:16.309Z,5.40
2019-05-25T00:31:24.935Z,5.50
2019-05-25T00:36:33.579Z,5.23
2019-05-25T00:41:42.276Z,5.07
2019-05-25T00:46:51.093Z,5.80
2019-05-25T00:51:59.818Z,5.80
2019-05-25T00:57:08.628Z,5.83
2019-05-25T01:02:17.278Z,5.13
2019-05-25T01:07:25.817Z,5.70
2019-05-25T01:12:34.817Z,5.33
2019-05-25T01:17:43.577Z,5.60
2019-05-25T01:22:52.271Z,5.90
2019-05-25T01:28:01.197Z,6.20
2019-05-25T01:33:10.202Z,6.10
2019-05-25T01:38:19.006Z,5.50
2019-05-25T01:43:27.771Z,6.27
2019-05-25T01:48:36.366Z,5.60
2019-05-25T01:53:45.107Z,5.97
2019-05-25T01:58:53.770Z,5.40
2019-05-25T02:04:02.725Z,5.13
2019-05-25T02:09:11.594Z,5.40
2019-05-25T02:14:20.418Z,5.17
2019-05-25T02:19:29.044Z,5.10
2019-05-25T02:24:37.749Z,5.37
2019-05-25T02:29:46.434Z,5.47
2019-05-25T02:34:55.007Z,5.40
2019-05-25T02:40:04.694Z,5.50
2019-05-25T02:45:13.551Z,5.47
2019-05-25T02:50:22.321Z,5.27
2019-05-25T02:55:34.859Z,5.73
2019-05-25T03:00:39.783Z,5.17
2019-05-25T03:05:48.812Z,5.60
2019-05-25T03:10:57.518Z,5.47
2019-05-25T03:16:06.311Z,5.37
2019-05-25T03:21:15.129Z,5.50
2019-05-25T03:26:23.885Z,5.60
2019-05-25T03:31:32.764Z,5.63
2019-05-25T03:36:41.620Z,5.80
2019-05-25T03:41:50.427Z,5.87
2019-05-25T03:46:59.269Z,6.03
2019-05-25T03:52:08.141Z,5.40
2019-05-25T03:57:16.872Z,6.00
2019-05-25T04:02:25.621Z,5.73
2019-05-25T04:07:34.199Z,5.30
2019-05-25T04:12:42.834Z,5.23
2019-05-25T04:17:51.531Z,5.20
2019-05-25T04:23:00.160Z,5.73
2019-05-25T04:28:08.987Z,5.83
2019-05-25T04:33:17.721Z,5.57
2019-05-25T04:38:26.391Z,5.83
2019-05-25T04:43:35.111Z,5.60
2019-05-25T04:48:43.841Z,5.83
2019-05-25T04:53:52.593Z,5.77
2019-05-25T04:59:01.259Z,5.70
2019-05-25T05:04:09.910Z,6.03
2019-05-25T05:09:18.713Z,6.17
2019-05-25T05:14:27.511Z,5.70
2019-05-25T05:19:36.303Z,6.50
2019-05-25T05:24:44.973Z,6.20
2019-05-25T05:29:53.666Z,6.70
2019-05-25T05:35:02.678Z,6.10
2019-05-25T05:40:11.650Z,5.97
2019-05-25T05:45:20.385Z,5.43
2019-05-25T05:50:29.056Z,5.70
2019-05-25T05:55:37.854Z,6.10
2019-05-25T06:00:46.493Z,5.70
2019-05-25T06:05:55.356Z,5.73
2019-05-25T06:11:04.202Z,5.80
2019-05-25T06:16:13.107Z,5.33
2019-05-25T06:21:21.976Z,5.47
2019-05-25T06:26:30.689Z,5.53
2019-05-25T06:31:39.455Z,6.47
2019-05-25T06:36:48.440Z,5.90
2019-05-25T06:41:57.268Z,5.60
2019-05-25T06:47:06.062Z,5.80
2019-05-25T06:52:14.902Z,5.70
2019-05-25T06:57:23.804Z,5.80
2019-05-25T07:02:32.475Z,6.20
2019-05-25T07:07:41.368Z,5.77
2019-05-25T07:12:50.243Z,5.00
2019-05-25T07:17:58.940Z,5.33
2019-05-25T07:23:07.763Z,5.50
2019-05-25T07:28:16.430Z,5.00
2019-05-25T07:33:25.288Z,5.23
2019-05-25T07:38:34.083Z,5.30
2019-05-25T07:43:42.712Z,5.30
2019-05-25T07:48:52.193Z,5.37
2019-05-25T07:54:00.897Z,5.37
2019-05-25T07:59:10.759Z,4.73
2019-05-25T08:04:19.579Z,5.40
2019-05-25T08:09:28.273Z,4.87
2019-05-25T08:14:36.995Z,4.43
2019-05-25T08:19:45.819Z,4.50
2019-05-25T08:24:54.583Z,5.00
2019-05-25T08:30:04.209Z,4.73
2019-05-25T08:35:13.313Z,4.87
2019-05-25T08:40:22.035Z,5.00
2019-05-25T08:45:30.839Z,5.27
2019-05-25T08:50:39.543Z,5.40
2019-05-25T08:55:48.425Z,4.53
2019-05-25T09:00:57.159Z,4.47
2019-05-25T09:06:05.865Z,4.33
2019-05-25T09:11:14.516Z,4.43
2019-05-25T09:16:23.347Z,4.57
2019-05-25T09:21:32.012Z,4.87
2019-05-25T09:26:40.663Z,4.80
2019-05-25T09:31:49.594Z,3.60
2019-05-25T09:36:58.390Z,3.47
2019-05-25T09:42:07.205Z,3.30
2019-05-25T09:47:15.779Z,3.37
2019-05-25T09:52:24.697Z,3.57
2019-05-25T09:57:33.558Z,3.30
2019-05-25T10:02:42.912Z,2.93
2019-05-25T10:07:51.468Z,3.27
2019-05-25T10:13:00.208Z,3.10
2019-05-25T10:18:09.007Z,3.37
2019-05-25T10:23:17.874Z,3.10
2019-05-25T10:28:26.524Z,3.20
2019-05-25T10:33:35.193Z,4.00
2019-05-25T10:38:43.911Z,3.53
2019-05-25T10:43:52.751Z,4.17
2019-05-25T10:49:01.575Z,3.30
2019-05-25T10:54:10.452Z,3.53
2019-05-25T10:59:19.383Z,3.07
2019-05-25T11:04:28.279Z,3.37
2019-05-25T11:09:36.916Z,3.53
2019-05-25T11:14:45.592Z,3.33
2019-05-25T11:19:54.380Z,3.40
2019-05-25T11:25:03.930Z,3.43
2019-05-25T11:30:12.785Z,3.30
2019-05-25T11:35:21.715Z,3.57
2019-05-25T11:40:30.517Z,3.20
2019-05-25T11:45:39.279Z,3.60
2019-05-25T11:50:48.135Z,3.30
2019-05-25T11:55:57.011Z,3.43
2019-05-25T12:01:05.821Z,4.20
2019-05-25T12:06:14.541Z,9.30
2019-05-25T12:11:23.259Z,7.40
2019-05-25T12:16:32.035Z,4.20
2019-05-25T12:21:40.877Z,3.80
2019-05-25T12:26:49.689Z,3.50
2019-05-25T12:32:04.181Z,3.60
2019-05-25T12:37:07.556Z,3.07
2019-05-25T12:42:16.253Z,2.30
2019-05-25T12:47:25.099Z,1.80
2019-05-25T12:52:33.910Z,2.10
2019-05-25T12:57:42.751Z,2.23
2019-05-25T13:02:51.621Z,2.37
2019-05-25T13:08:00.525Z,2.60
2019-05-25T13:13:09.173Z,2.53
2019-05-25T13:18:17.806Z,2.60
2019-05-25T13:23:26.486Z,3.50
2019-05-25T13:28:35.281Z,3.03
2019-05-25T13:33:43.971Z,3.10
2019-05-25T13:38:52.874Z,2.80
2019-05-25T13:44:01.558Z,2.53
2019-05-25T13:49:10.355Z,2.40
2019-05-25T13:54:19.083Z,2.07
2019-05-25T13:59:27.744Z,2.07
2019-05-25T14:04:36.433Z,2.80
2019-05-25T14:09:45.155Z,3.10
2019-05-25T14:14:53.822Z,3.90
2019-05-25T14:20:02.954Z,3.33
2019-05-25T14:25:11.886Z,3.23
2019-05-25T14:30:20.657Z,3.00
2019-05-25T14:35:29.491Z,5.33
2019-05-25T14:40:38.177Z,3.27
2019-05-25T14:45:47.193Z,3.70
2019-05-25T14:50:56.067Z,3.37
2019-05-25T14:56:04.821Z,3.50
2019-05-25T15:01:13.663Z,3.00
2019-05-25T15:06:22.597Z,3.43
2019-05-25T15:11:31.468Z,3.03
2019-05-25T15:16:40.289Z,2.80
2019-05-25T15:21:49.271Z,2.33
2019-05-25T15:26:57.968Z,2.10
2019-05-25T15:32:19.657Z,2.30
2019-05-25T15:37:15.659Z,2.13
2019-05-25T15:42:24.313Z,2.07
2019-05-25T15:47:33.105Z,2.20
2019-05-25T15:52:41.991Z,3.70
2019-05-25T15:57:50.837Z,3.23
2019-05-25T16:02:59.545Z,4.17
2019-05-25T16:08:08.239Z,3.20
2019-05-25T16:13:16.933Z,2.77
2019-05-25T16:18:25.657Z,2.80
2019-05-25T16:23:34.517Z,2.27
2019-05-25T16:28:43.331Z,2.70
2019-05-25T16:33:52.019Z,3.20
2019-05-25T16:39:00.916Z,2.63
2019-05-25T16:44:09.699Z,2.87
2019-05-25T16:49:18.554Z,3.37
2019-05-25T16:54:27.387Z,2.50
2019-05-25T16:59:36.130Z,2.90
2019-05-25T17:04:44.977Z,3.20
2019-05-25T17:09:53.783Z,2.90
2019-05-25T17:15:02.615Z,2.63
2019-05-25T17:20:11.502Z,2.80
2019-05-25T17:25:20.320Z,2.67
2019-05-25T17:30:39.146Z,3.17
2019-05-25T17:35:48.007Z,3.23
2019-05-25T17:40:56.810Z,3.23
2019-05-25T17:46:05.595Z,2.67
2019-05-25T17:51:14.622Z,3.10
2019-05-25T17:56:23.619Z,2.80
2019-05-25T18:01:32.286Z,3.10
2019-05-25T18:06:40.921Z,2.73
2019-05-25T18:11:49.875Z,3.30
2019-05-25T18:16:58.714Z,2.90
2019-05-25T18:22:07.511Z,3.10
2019-05-25T18:27:16.248Z,2.90
2019-05-25T18:32:25.073Z,3.30
2019-05-25T18:37:33.971Z,3.10
2019-05-25T18:42:42.762Z,3.60
2019-05-25T18:47:51.419Z,3.40
2019-05-25T18:53:00.191Z,3.20
2019-05-25T18:58:09.005Z,3.50
2019-05-25T19:03:17.709Z,3.17
2019-05-25T19:08:26.505Z,3.53
2019-05-25T19:13:35.277Z,3.50
2019-05-25T19:18:44.156Z,3.50
2019-05-25T19:23:52.739Z,3.63
2019-05-25T19:29:05.342Z,3.80
2019-05-25T19:34:10.513Z,3.70
2019-05-25T19:39:19.201Z,4.03
2019-05-25T19:44:28.021Z,3.73
2019-05-25T19:49:36.839Z,3.93
2019-05-25T19:54:45.653Z,3.40
2019-05-25T19:59:54.385Z,3.53
2019-05-25T20:05:15.603Z,3.70
2019-05-25T20:10:12.489Z,3.63
2019-05-25T20:15:21.313Z,3.83
2019-05-25T20:20:30.126Z,4.20
2019-05-25T20:25:38.707Z,4.30
2019-05-25T20:30:47.495Z,4.07
2019-05-25T20:35:56.461Z,3.77
2019-05-25T20:41:05.115Z,3.80
2019-05-25T20:46:13.911Z,3.60
2019-05-25T20:51:22.747Z,4.27
2019-05-25T20:56:31.549Z,4.30
2019-05-25T21:01:40.691Z,4.17
2019-05-25T21:06:49.421Z,3.97
2019-05-25T21:11:58.227Z,4.03
2019-05-25T21:17:07.154Z,3.93
2019-05-25T21:22:16.010Z,3.87
2019-05-25T21:27:24.973Z,3.60
2019-05-25T21:32:33.595Z,4.20
2019-05-25T21:37:42.431Z,4.03
2019-05-25T21:42:51.293Z,3.73
2019-05-25T21:48:00.129Z,3.70
2019-05-25T21:53:11.131Z,4.00
2019-05-25T21:58:17.859Z,3.67
2019-05-25T22:03:26.730Z,3.80
2019-05-25T22:08:35.585Z,3.37
2019-05-25T22:13:44.409Z,3.67
2019-05-25T22:18:53.189Z,3.13
2019-05-25T22:24:01.815Z,3.60
2019-05-25T22:29:10.724Z,3.40
2019-05-25T22:34:19.576Z,3.57
2019-05-25T22:39:28.341Z,3.40
2019-05-25T22:44:37.232Z,3.40
2019-05-25T22:49:46.031Z,3.27
2019-05-25T22:54:54.708Z,3.23
2019-05-25T23:00:05.506Z,3.47
2019-05-25T23:05:14.121Z,3.33
2019-05-25T23:10:23.026Z,3.60
2019-05-25T23:15:31.818Z,3.57
2019-05-25T23:20:40.589Z,3.70
2019-05-25T23:25:49.455Z,3.50
2019-05-25T23:30:58.292Z,3.33
2019-05-25T23:36:06.845Z,3.73
2019-05-25T23:41:15.713Z,3.70
2019-05-25T23:46:24.595Z,3.83
2019-05-25T23:51:33.478Z,3.60
2019-05-25T23:56:42.257Z,3.83
